createdAt,value
2018-08-07T00:05:36.607Z,59.40
2018-08-07T00:08:06.727Z,59.30
2018-08-07T00:10:36.133Z,59.20
2018-08-07T00:13:05.598Z,59.40
2018-08-07T00:15:34.975Z,59.60
2018-08-07T00:18:04.364Z,59.50
2018-08-07T00:20:33.738Z,59.60
2018-08-07T00:23:03.071Z,59.60
2018-08-07T00:25:32.541Z,59.80
2018-08-07T00:28:01.966Z,59.90
2018-08-07T00:30:31.271Z,60.00
2018-08-07T00:35:29.456Z,60.00
2018-08-07T00:37:58.771Z,58.80
2018-08-07T00:40:28.275Z,59.90
2018-08-07T00:42:57.586Z,60.10
2018-08-07T00:45:26.921Z,60.00
2018-08-07T00:47:56.296Z,60.10
2018-08-07T00:50:25.646Z,59.50
2018-08-07T00:52:54.941Z,58.60
2018-08-07T00:55:24.337Z,59.60
2018-08-07T00:57:53.591Z,59.20
2018-08-07T01:00:22.808Z,59.60
2018-08-07T01:02:52.737Z,58.90
2018-08-07T01:05:22.208Z,58.90
2018-08-07T01:07:51.606Z,58.10
2018-08-07T01:10:20.918Z,58.20
2018-08-07T01:12:50.241Z,58.40
2018-08-07T01:15:21.429Z,59.20
2018-08-07T01:17:50.809Z,60.00
2018-08-07T01:20:22.251Z,59.90
2018-08-07T01:22:51.893Z,60.00
2018-08-07T01:27:51.913Z,60.10
2018-08-07T01:32:57.343Z,59.70
2018-08-07T01:35:27.974Z,59.60
2018-08-07T01:37:57.718Z,60.00
2018-08-07T01:40:27.926Z,60.30
2018-08-07T01:42:57.895Z,59.20
2018-08-07T01:45:27.515Z,58.90
2018-08-07T01:47:57.032Z,58.40
2018-08-07T01:50:26.714Z,58.50
2018-08-07T01:52:56.163Z,58.20
2018-08-07T01:55:27.860Z,58.10
2018-08-07T01:57:57.362Z,58.00
2018-08-07T02:00:26.903Z,58.20
2018-08-07T02:02:56.323Z,58.10
2018-08-07T02:05:25.922Z,58.50
2018-08-07T02:07:55.561Z,57.80
2018-08-07T02:10:24.847Z,57.90
2018-08-07T02:12:54.241Z,57.90
2018-08-07T02:15:23.490Z,57.90
2018-08-07T02:17:52.828Z,58.10
2018-08-07T02:20:22.233Z,58.20
2018-08-07T02:22:51.620Z,58.10
2018-08-07T02:25:20.941Z,57.90
2018-08-07T02:27:50.256Z,57.50
2018-08-07T02:30:19.798Z,57.80
2018-08-07T02:32:49.139Z,58.00
2018-08-07T02:35:19.008Z,59.10
2018-08-07T02:37:48.812Z,59.70
2018-08-07T02:42:47.367Z,59.80
2018-08-07T02:45:18.150Z,59.90
2018-08-07T02:47:48.018Z,59.70
2018-08-07T02:50:19.704Z,59.70
2018-08-07T02:55:17.880Z,59.60
2018-08-07T02:57:47.238Z,59.70
2018-08-07T03:00:22.574Z,59.60
2018-08-07T03:02:51.893Z,58.80
2018-08-07T03:05:22.089Z,58.70
2018-08-07T03:07:51.573Z,58.80
2018-08-07T03:10:20.949Z,59.20
2018-08-07T03:12:50.425Z,59.10
2018-08-07T03:15:21.325Z,59.00
2018-08-07T03:17:51.501Z,59.00
2018-08-07T03:20:21.027Z,59.20
2018-08-07T03:22:51.324Z,58.90
2018-08-07T03:25:21.373Z,59.60
2018-08-07T03:30:20.712Z,57.60
2018-08-07T03:32:50.151Z,58.00
2018-08-07T03:35:19.700Z,58.00
2018-08-07T03:40:18.972Z,58.20
2018-08-07T03:45:19.332Z,58.10
2018-08-07T03:47:49.394Z,58.20
2018-08-07T03:50:18.827Z,58.10
2018-08-07T03:52:48.150Z,57.90
2018-08-07T03:55:18.818Z,57.70
2018-08-07T04:02:48.429Z,57.80
2018-08-07T04:05:17.870Z,57.70
2018-08-07T04:10:17.510Z,57.70
2018-08-07T04:12:46.920Z,57.40
2018-08-07T04:15:17.710Z,57.60
2018-08-07T04:17:47.146Z,57.70
2018-08-07T04:20:18.057Z,58.30
2018-08-07T04:25:16.285Z,58.00
2018-08-07T04:27:45.669Z,58.00
2018-08-07T04:30:17.877Z,58.10
2018-08-07T04:32:47.226Z,58.00
2018-08-07T04:35:17.250Z,58.10
2018-08-07T04:37:46.867Z,58.20
2018-08-07T04:40:16.263Z,58.00
2018-08-07T04:42:45.635Z,58.20
2018-08-07T04:45:16.155Z,58.40
2018-08-07T04:47:46.069Z,58.50
2018-08-07T04:50:15.348Z,59.90
2018-08-07T04:52:44.729Z,58.70
2018-08-07T04:55:14.082Z,59.00
2018-08-07T04:57:43.385Z,59.00
2018-08-07T05:00:17.279Z,58.50
2018-08-07T05:02:47.338Z,58.40
2018-08-07T05:05:16.851Z,58.20
2018-08-07T05:07:46.278Z,58.10
2018-08-07T05:10:17.195Z,58.30
2018-08-07T05:12:47.190Z,58.20
2018-08-07T05:15:16.851Z,58.70
2018-08-07T05:17:47.343Z,58.20
2018-08-07T05:20:16.812Z,58.00
2018-08-07T05:22:46.892Z,58.20
2018-08-07T05:25:16.201Z,58.10
2018-08-07T05:27:45.520Z,58.20
2018-08-07T05:30:16.191Z,58.30
2018-08-07T05:32:45.775Z,58.60
2018-08-07T05:35:16.004Z,58.80
2018-08-07T05:37:45.421Z,58.30
2018-08-07T05:40:14.760Z,58.20
2018-08-07T05:42:44.115Z,58.50
2018-08-07T05:45:16.174Z,59.30
2018-08-07T05:50:16.425Z,58.00
2018-08-07T05:52:45.659Z,58.00
2018-08-07T05:55:15.866Z,58.90
2018-08-07T05:57:45.341Z,58.50
2018-08-07T06:00:18.119Z,58.60
2018-08-07T06:07:46.912Z,58.80
2018-08-07T06:10:16.392Z,58.90
2018-08-07T06:12:45.684Z,58.70
2018-08-07T06:15:17.138Z,58.90
2018-08-07T06:17:47.151Z,59.20
2018-08-07T06:20:16.651Z,59.40
2018-08-07T06:22:46.085Z,59.20
2018-08-07T06:25:15.434Z,59.10
2018-08-07T06:27:44.742Z,59.10
2018-08-07T06:30:18.906Z,59.30
2018-08-07T06:32:49.288Z,59.40
2018-08-07T06:35:19.354Z,59.50
2018-08-07T06:37:48.792Z,59.10
2018-08-07T06:40:18.188Z,59.00
2018-08-07T06:45:17.653Z,59.70
2018-08-07T06:47:47.248Z,59.40
2018-08-07T06:50:18.074Z,59.20
2018-08-07T06:52:48.134Z,58.70
2018-08-07T06:55:17.720Z,58.50
2018-08-07T06:57:47.214Z,59.00
2018-08-07T07:00:23.333Z,59.10
2018-08-07T07:02:53.036Z,59.80
2018-08-07T07:05:22.550Z,58.80
2018-08-07T07:07:52.347Z,59.00
2018-08-07T07:10:21.792Z,58.90
2018-08-07T07:12:51.215Z,58.60
2018-08-07T07:15:20.648Z,60.20
2018-08-07T07:17:50.000Z,62.20
2018-08-07T07:20:20.081Z,61.70
2018-08-07T07:27:47.316Z,62.20
2018-08-07T07:30:20.820Z,62.70
2018-08-07T07:32:51.478Z,63.20
2018-08-07T07:35:23.784Z,62.70
2018-08-07T07:37:53.161Z,62.90
2018-08-07T07:40:22.561Z,62.60
2018-08-07T07:42:51.935Z,63.40
2018-08-07T07:45:21.719Z,63.90
2018-08-07T07:47:51.079Z,62.70
2018-08-07T07:50:21.591Z,62.30
2018-08-07T07:52:50.845Z,61.70
2018-08-07T07:55:20.701Z,62.10
2018-08-07T07:57:50.055Z,62.30
2018-08-07T08:00:25.404Z,62.40
2018-08-07T08:02:54.951Z,62.30
2018-08-07T08:05:25.498Z,62.50
2018-08-07T08:07:55.354Z,60.20
2018-08-07T08:10:24.815Z,60.70
2018-08-07T08:12:54.367Z,59.20
2018-08-07T08:15:23.658Z,59.70
2018-08-07T08:17:53.008Z,58.50
2018-08-07T08:20:24.083Z,59.30
2018-08-07T08:22:54.436Z,58.50
2018-08-07T08:25:23.743Z,57.90
2018-08-07T08:27:53.209Z,57.90
2018-08-07T08:35:20.728Z,57.90
2018-08-07T08:37:50.321Z,58.00
2018-08-07T08:40:21.403Z,57.60
2018-08-07T08:42:50.753Z,57.90
2018-08-07T08:45:23.110Z,57.80
2018-08-07T08:47:55.833Z,57.90
2018-08-07T08:50:25.275Z,58.80
2018-08-07T08:52:54.710Z,58.40
2018-08-07T08:55:24.097Z,59.20
2018-08-07T08:57:53.572Z,58.60
2018-08-07T09:00:26.579Z,58.70
2018-08-07T09:02:56.956Z,59.00
2018-08-07T09:05:26.406Z,58.80
2018-08-07T09:07:55.762Z,58.30
2018-08-07T09:10:28.744Z,58.30
2018-08-07T09:12:58.953Z,58.20
2018-08-07T09:15:28.356Z,57.10
2018-08-07T09:20:28.875Z,56.30
2018-08-07T09:22:58.751Z,55.20
2018-08-07T09:25:29.395Z,55.40
2018-08-07T09:27:58.885Z,55.20
2018-08-07T09:30:29.655Z,54.80
2018-08-07T09:32:59.675Z,55.30
2018-08-07T09:35:29.953Z,55.70
2018-08-07T09:37:59.793Z,56.10
2018-08-07T09:40:29.226Z,56.20
2018-08-07T09:42:58.772Z,56.90
2018-08-07T09:45:30.450Z,57.70
2018-08-07T09:48:02.163Z,58.70
2018-08-07T09:50:31.599Z,59.20
2018-08-07T09:53:00.993Z,59.40
2018-08-07T09:55:30.463Z,60.40
2018-08-07T09:57:59.849Z,61.30
2018-08-07T10:00:34.654Z,62.30
2018-08-07T10:03:11.130Z,62.20
2018-08-07T10:05:40.698Z,62.10
2018-08-07T10:08:10.347Z,63.90
2018-08-07T10:10:39.870Z,64.20
2018-08-07T10:15:38.327Z,65.70
2018-08-07T10:18:08.035Z,65.50
2018-08-07T10:20:37.368Z,67.50
2018-08-07T10:23:07.124Z,68.40
2018-08-07T10:25:36.980Z,69.50
2018-08-07T10:28:06.495Z,69.30
2018-08-07T10:30:35.855Z,70.30
2018-08-07T10:33:05.949Z,71.60
2018-08-07T10:35:35.409Z,71.70
2018-08-07T10:38:05.129Z,73.50
2018-08-07T10:40:34.760Z,73.90
2018-08-07T10:43:04.180Z,72.70
2018-08-07T10:45:33.765Z,74.80
2018-08-07T10:48:03.221Z,73.20
2018-08-07T10:50:32.604Z,70.90
2018-08-07T10:53:01.888Z,71.70
2018-08-07T10:55:31.350Z,72.60
2018-08-07T10:58:01.627Z,69.70
2018-08-07T11:00:33.153Z,72.70
2018-08-07T11:05:31.907Z,71.30
2018-08-07T11:08:01.393Z,70.50
2018-08-07T11:10:31.550Z,70.60
2018-08-07T11:13:00.986Z,70.00
2018-08-07T11:18:01.540Z,67.30
2018-08-07T11:20:30.976Z,66.20
2018-08-07T11:23:01.918Z,64.40
2018-08-07T11:25:32.191Z,65.30
2018-08-07T11:30:31.118Z,65.00
2018-08-07T11:33:01.590Z,64.80
2018-08-07T11:35:31.071Z,64.60
2018-08-07T11:38:01.832Z,65.40
2018-08-07T11:40:31.417Z,64.60
2018-08-07T11:43:01.056Z,64.90
2018-08-07T11:45:31.529Z,65.40
2018-08-07T11:48:00.977Z,65.80
2018-08-07T11:50:31.885Z,67.10
2018-08-07T11:53:01.314Z,68.10
2018-08-07T11:55:30.705Z,67.10
2018-08-07T11:58:00.139Z,67.00
2018-08-07T12:00:32.198Z,68.00
2018-08-07T12:03:02.315Z,67.30
2018-08-07T12:05:32.719Z,65.10
2018-08-07T12:08:02.923Z,66.50
2018-08-07T12:10:32.461Z,67.20
2018-08-07T12:13:01.893Z,65.20
2018-08-07T12:15:35.955Z,66.50
2018-08-07T12:18:05.508Z,68.60
2018-08-07T12:20:34.986Z,68.00
2018-08-07T12:23:04.394Z,67.40
2018-08-07T12:25:33.698Z,68.60
2018-08-07T12:28:03.126Z,67.90
2018-08-07T12:30:33.419Z,67.30
2018-08-07T12:33:03.001Z,67.90
2018-08-07T12:35:32.767Z,67.90
2018-08-07T12:38:02.416Z,68.60
2018-08-07T12:40:32.795Z,68.20
2018-08-07T12:45:33.336Z,69.60
2018-08-07T12:48:03.059Z,70.10
2018-08-07T12:50:32.507Z,69.60
2018-08-07T12:53:02.054Z,70.20
2018-08-07T12:55:31.700Z,71.40
2018-08-07T12:58:01.144Z,70.80
2018-08-07T13:00:32.036Z,72.50
2018-08-07T13:03:02.022Z,74.90
2018-08-07T13:08:00.271Z,76.10
2018-08-07T13:10:29.581Z,74.80
2018-08-07T13:12:58.878Z,76.30
2018-08-07T13:15:28.585Z,73.80
2018-08-07T13:17:58.420Z,75.60
2018-08-07T13:20:27.784Z,75.00
2018-08-07T13:22:57.342Z,75.70
2018-08-07T13:25:27.000Z,76.00
2018-08-07T13:27:56.761Z,77.50
2018-08-07T13:30:27.806Z,78.30
2018-08-07T13:35:26.918Z,78.20
2018-08-07T13:37:56.444Z,77.90
2018-08-07T13:40:26.042Z,77.30
2018-08-07T13:42:55.908Z,79.30
2018-08-07T13:45:26.164Z,80.90
2018-08-07T13:47:55.593Z,81.50
2018-08-07T13:50:25.836Z,79.20
2018-08-07T13:52:55.935Z,79.40
2018-08-07T13:55:26.272Z,78.10
2018-08-07T13:57:55.743Z,75.70
2018-08-07T14:00:27.270Z,76.70
2018-08-07T14:02:57.592Z,73.70
2018-08-07T14:05:28.123Z,71.90
2018-08-07T14:07:58.462Z,74.50
2018-08-07T14:10:29.400Z,75.60
2018-08-07T14:15:29.178Z,79.20
2018-08-07T14:17:58.675Z,78.90
2018-08-07T14:20:29.144Z,80.70
2018-08-07T14:22:58.422Z,79.50
2018-08-07T14:25:30.063Z,80.10
2018-08-07T14:27:59.383Z,80.00
2018-08-07T14:30:30.133Z,81.40
2018-08-07T14:33:01.139Z,80.90
2018-08-07T14:35:30.612Z,80.50
2018-08-07T14:38:00.059Z,81.40
2018-08-07T14:40:29.507Z,80.70
2018-08-07T14:45:29.484Z,78.60
2018-08-07T14:47:59.832Z,80.50
2018-08-07T14:50:30.434Z,80.10
2018-08-07T14:53:00.504Z,80.10
2018-08-07T14:55:29.853Z,80.80
2018-08-07T14:57:59.238Z,80.20
2018-08-07T15:00:30.079Z,79.30
2018-08-07T15:02:59.652Z,80.10
2018-08-07T15:05:28.952Z,80.70
2018-08-07T15:07:58.298Z,82.10
2018-08-07T15:10:28.568Z,80.20
2018-08-07T15:12:57.880Z,79.50
2018-08-07T15:15:30.579Z,77.90
2018-08-07T15:17:59.954Z,75.90
2018-08-07T15:20:30.709Z,74.00
2018-08-07T15:23:00.160Z,72.50
2018-08-07T15:25:29.685Z,73.30
2018-08-07T15:27:59.083Z,72.30
2018-08-07T15:30:29.066Z,71.90
2018-08-07T15:32:58.782Z,72.50
2018-08-07T15:35:29.771Z,72.00
2018-08-07T15:37:59.693Z,71.90
2018-08-07T15:42:57.970Z,74.80
2018-08-07T15:45:27.510Z,75.30
2018-08-07T15:47:56.962Z,76.20
2018-08-07T15:50:26.397Z,77.10
2018-08-07T15:52:56.453Z,75.90
2018-08-07T15:55:27.288Z,76.00
2018-08-07T15:57:57.009Z,77.00
2018-08-07T16:00:31.444Z,76.30
2018-08-07T16:03:02.127Z,76.80
2018-08-07T16:05:31.861Z,76.10
2018-08-07T16:08:01.232Z,76.20
2018-08-07T16:12:59.828Z,76.10
2018-08-07T16:15:29.161Z,73.80
2018-08-07T16:17:58.609Z,75.10
2018-08-07T16:20:27.930Z,75.50
2018-08-07T16:25:26.228Z,75.60
2018-08-07T16:27:55.737Z,76.70
2018-08-07T16:30:26.705Z,77.20
2018-08-07T16:32:56.167Z,77.20
2018-08-07T16:35:25.608Z,74.70
2018-08-07T16:37:55.237Z,76.00
2018-08-07T16:40:25.367Z,76.90
2018-08-07T16:42:55.384Z,76.80
2018-08-07T16:45:25.551Z,76.30
2018-08-07T16:47:54.952Z,77.00
2018-08-07T16:50:26.527Z,77.70
2018-08-07T16:52:56.763Z,77.70
2018-08-07T16:55:27.732Z,76.10
2018-08-07T16:57:57.094Z,73.60
2018-08-07T17:00:26.487Z,73.80
2018-08-07T17:02:55.838Z,74.50
2018-08-07T17:05:25.165Z,75.30
2018-08-07T17:10:53.079Z,76.30
2018-08-07T17:13:22.466Z,77.50
2018-08-07T17:15:51.726Z,78.30
2018-08-07T17:18:21.025Z,78.10
2018-08-07T17:20:50.287Z,76.50
2018-08-07T17:23:19.691Z,77.30
2018-08-07T17:25:49.064Z,76.70
2018-08-07T17:28:18.393Z,76.20
2018-08-07T17:30:47.710Z,76.80
2018-08-07T17:33:17.098Z,76.90
2018-08-07T17:35:46.459Z,76.00
2018-08-07T17:38:15.764Z,75.40
2018-08-07T17:40:45.179Z,76.10
2018-08-07T17:43:14.558Z,70.90
2018-08-07T17:45:43.981Z,71.30
2018-08-07T17:48:13.360Z,71.50
2018-08-07T17:50:42.652Z,73.20
2018-08-07T17:53:12.019Z,74.30
2018-08-07T17:55:41.354Z,73.50
2018-08-07T17:58:10.778Z,74.40
2018-08-07T18:00:40.237Z,75.00
2018-08-07T18:03:09.548Z,74.00
2018-08-07T18:05:38.858Z,74.10
2018-08-07T18:08:08.318Z,72.90
2018-08-07T18:10:37.655Z,72.70
2018-08-07T18:13:07.107Z,73.30
2018-08-07T18:15:36.553Z,75.10
2018-08-07T18:18:05.888Z,75.50
2018-08-07T18:20:35.162Z,76.70
2018-08-07T18:23:04.567Z,76.80
2018-08-07T18:25:33.875Z,76.50
2018-08-07T18:28:03.359Z,77.20
2018-08-07T18:30:32.694Z,77.30
2018-08-07T18:33:02.142Z,77.40
2018-08-07T18:35:31.415Z,77.80
2018-08-07T18:38:00.726Z,76.60
2018-08-07T18:40:30.145Z,77.60
2018-08-07T18:42:59.422Z,79.10
2018-08-07T18:45:28.736Z,79.20
2018-08-07T18:47:58.134Z,80.20
2018-08-07T18:50:27.574Z,74.80
2018-08-07T18:52:56.971Z,71.30
2018-08-07T18:55:26.416Z,78.00
2018-08-07T18:57:55.869Z,79.40
2018-08-07T19:00:26.051Z,78.60
2018-08-07T19:02:55.567Z,79.60
2018-08-07T19:05:25.426Z,79.30
2018-08-07T19:07:54.834Z,78.90
2018-08-07T19:10:24.763Z,79.10
2018-08-07T19:12:54.125Z,78.70
2018-08-07T19:15:23.443Z,76.80
2018-08-07T19:17:52.723Z,78.30
2018-08-07T19:20:23.082Z,78.40
2018-08-07T19:22:52.442Z,78.40
2018-08-07T19:25:22.037Z,77.90
2018-08-07T19:27:51.326Z,77.50
2018-08-07T19:30:23.539Z,77.00
2018-08-07T19:32:52.808Z,76.40
2018-08-07T19:35:22.265Z,75.60
2018-08-07T19:37:51.596Z,75.10
2018-08-07T19:40:21.326Z,74.70
2018-08-07T19:42:51.248Z,73.80
2018-08-07T19:45:20.752Z,73.30
2018-08-07T19:47:50.167Z,72.00
2018-08-07T19:50:21.159Z,70.80
2018-08-07T19:52:50.694Z,73.50
2018-08-07T19:55:21.185Z,76.60
2018-08-07T19:57:50.524Z,79.10
2018-08-07T20:00:22.396Z,81.00
2018-08-07T20:02:52.194Z,81.80
2018-08-07T20:05:22.069Z,83.40
2018-08-07T20:07:51.861Z,84.40
2018-08-07T20:10:21.648Z,85.20
2018-08-07T20:12:51.096Z,86.20
2018-08-07T20:15:22.560Z,87.30
2018-08-07T20:17:52.795Z,88.80
2018-08-07T20:20:22.988Z,90.30
2018-08-07T20:22:52.392Z,91.10
2018-08-07T20:25:22.099Z,91.00
2018-08-07T20:27:51.493Z,91.40
2018-08-07T20:30:22.066Z,91.60
2018-08-07T20:32:53.016Z,92.10
2018-08-07T20:35:22.310Z,92.40
2018-08-07T20:37:51.643Z,93.50
2018-08-07T20:40:23.511Z,94.00
2018-08-07T20:42:53.544Z,95.00
2018-08-07T20:45:23.213Z,95.60
2018-08-07T20:47:52.712Z,95.30
2018-08-07T20:50:24.665Z,95.30
2018-08-07T20:52:54.877Z,95.40
2018-08-07T20:55:24.303Z,95.20
2018-08-07T20:57:53.671Z,94.70
2018-08-07T21:00:26.439Z,94.70
2018-08-07T21:02:56.888Z,94.20
2018-08-07T21:05:26.562Z,95.00
2018-08-07T21:07:55.982Z,94.60
2018-08-07T21:10:28.347Z,94.20
2018-08-07T21:12:58.208Z,94.30
2018-08-07T21:15:27.611Z,94.20
2018-08-07T21:17:57.003Z,94.60
2018-08-07T21:20:26.444Z,95.30
2018-08-07T21:22:55.969Z,95.30
2018-08-07T21:25:25.646Z,95.50
2018-08-07T21:28:00.336Z,96.40
2018-08-07T21:30:31.359Z,96.00
2018-08-07T21:33:00.975Z,96.50
2018-08-07T21:35:32.111Z,96.40
2018-08-07T21:38:01.665Z,95.30
2018-08-07T21:40:32.171Z,94.90
2018-08-07T21:43:01.748Z,94.30
2018-08-07T21:45:31.041Z,93.50
2018-08-07T21:48:00.769Z,93.80
2018-08-07T21:50:30.130Z,93.70
2018-08-07T21:52:59.457Z,93.00
2018-08-07T21:55:28.947Z,93.20
2018-08-07T21:57:58.266Z,93.40
2018-08-07T22:00:33.068Z,93.30
2018-08-07T22:03:02.350Z,93.40
2018-08-07T22:05:31.616Z,93.40
2018-08-07T22:08:00.905Z,93.10
2018-08-07T22:10:30.793Z,93.30
2018-08-07T22:13:00.183Z,93.30
2018-08-07T22:15:29.417Z,93.30
2018-08-07T22:17:58.767Z,93.20
2018-08-07T22:20:28.276Z,93.20
2018-08-07T22:22:57.726Z,93.40
2018-08-07T22:25:27.019Z,93.40
2018-08-07T22:27:56.376Z,93.30
2018-08-07T22:30:25.675Z,93.30
2018-08-07T22:32:55.031Z,93.20
2018-08-07T22:35:24.292Z,93.30
2018-08-07T22:37:53.595Z,93.30
2018-08-07T22:40:22.863Z,93.40
2018-08-07T22:42:52.128Z,93.70
2018-08-07T22:45:21.523Z,93.80
2018-08-07T22:47:50.741Z,93.90
2018-08-07T22:50:20.428Z,94.00
2018-08-07T22:52:49.854Z,94.30
2018-08-07T22:55:20.215Z,94.20
2018-08-07T22:57:49.471Z,94.20
2018-08-07T23:00:20.580Z,94.30
2018-08-07T23:02:49.908Z,94.40
2018-08-07T23:05:19.838Z,94.40
2018-08-07T23:07:49.224Z,94.30
2018-08-07T23:10:19.970Z,94.20
2018-08-07T23:12:49.283Z,94.40
2018-08-07T23:15:22.729Z,94.60
2018-08-07T23:17:52.068Z,94.70
2018-08-07T23:20:22.887Z,94.80
2018-08-07T23:22:55.051Z,94.80
2018-08-07T23:25:24.477Z,94.70
2018-08-07T23:27:53.811Z,94.50
2018-08-07T23:30:23.109Z,94.60
2018-08-07T23:32:52.443Z,94.60
2018-08-07T23:35:21.923Z,94.60
2018-08-07T23:37:51.212Z,94.60
2018-08-07T23:40:20.492Z,94.60
2018-08-07T23:42:49.740Z,94.50
2018-08-07T23:45:19.111Z,94.50
2018-08-07T23:47:48.365Z,94.50
2018-08-07T23:50:17.594Z,94.40
2018-08-07T23:52:46.899Z,94.60
2018-08-07T23:55:16.142Z,94.40
2018-08-07T23:57:45.420Z,94.40
